NGN47 LFPG-EDDK
Flight info
| Callsign | NGN47 |
|---|---|
| Flight time | 0h 40m |
| Altitude | 30000 |
| Route | RANUX DCT VALEK DCT LUTAX UM163 DIK N853 ARCKY T853 IBESA T860 ERUKI T856 DEPOK |
| Aircraft | A320/M-SDE3FGHIRWY/LB1 |
Departure
| Time | 2026-04-24 20:37 |
|---|---|
| Airport | Charles de Gaulle International Airport (LFPG) |
Arrival
| Time | 2026-04-24 21:17 |
|---|---|
| Airport | Cologne Bonn Airport (EDDK) |
| Time | Latitude | Longitude | Altitude | Speed | Heading |
|---|---|---|---|---|---|
| 2026-04-24 19:59 | 49.01118 | 2.54664 | 361 ft | 0 kts | 176° |
| 2026-04-24 20:24 | 49.01122 | 2.54663 | 354 ft | 3 kts | 175° |
| 2026-04-24 20:24 | 49.01148 | 2.54659 | 360 ft | 4 kts | 168° |
| 2026-04-24 20:25 | 49.01174 | 2.54648 | 359 ft | 4 kts | 159° |
| 2026-04-24 20:25 | 49.01198 | 2.54630 | 363 ft | 4 kts | 141° |
| 2026-04-24 20:25 | 49.01213 | 2.54602 | 358 ft | 4 kts | 93° |
| 2026-04-24 20:25 | 49.01214 | 2.54594 | 359 ft | 0 kts | 84° |
| 2026-04-24 20:28 | 49.01214 | 2.54603 | 363 ft | 3 kts | 84° |
| 2026-04-24 20:28 | 49.01218 | 2.54672 | 354 ft | 8 kts | 85° |
| 2026-04-24 20:28 | 49.01222 | 2.54734 | 354 ft | 10 kts | 85° |
| 2026-04-24 20:29 | 49.01228 | 2.54851 | 360 ft | 12 kts | 85° |
| 2026-04-24 20:29 | 49.01270 | 2.54962 | 361 ft | 14 kts | 15° |
| 2026-04-24 20:29 | 49.01371 | 2.54928 | 358 ft | 16 kts | 346° |
| 2026-04-24 20:29 | 49.01488 | 2.54899 | 360 ft | 18 kts | 354° |
| 2026-04-24 20:30 | 49.01621 | 2.54881 | 354 ft | 20 kts | 355° |
| 2026-04-24 20:30 | 49.01736 | 2.54866 | 360 ft | 17 kts | 355° |
| 2026-04-24 20:30 | 49.01836 | 2.54834 | 360 ft | 13 kts | 314° |
| 2026-04-24 20:30 | 49.01840 | 2.54689 | 354 ft | 15 kts | 266° |
| 2026-04-24 20:31 | 49.01831 | 2.54522 | 361 ft | 17 kts | 265° |
| 2026-04-24 20:31 | 49.01820 | 2.54335 | 354 ft | 19 kts | 265° |
| 2026-04-24 20:31 | 49.01810 | 2.54125 | 358 ft | 21 kts | 265° |
| 2026-04-24 20:31 | 49.01798 | 2.53894 | 354 ft | 23 kts | 265° |
| 2026-04-24 20:32 | 49.01784 | 2.53640 | 354 ft | 25 kts | 265° |
| 2026-04-24 20:32 | 49.01769 | 2.53365 | 354 ft | 27 kts | 265° |
| 2026-04-24 20:32 | 49.01754 | 2.53099 | 360 ft | 23 kts | 265° |
| 2026-04-24 20:32 | 49.01742 | 2.52843 | 360 ft | 25 kts | 264° |
| 2026-04-24 20:33 | 49.01726 | 2.52568 | 354 ft | 27 kts | 265° |
| 2026-04-24 20:33 | 49.01714 | 2.52346 | 361 ft | 19 kts | 265° |
| 2026-04-24 20:33 | 49.01712 | 2.52184 | 354 ft | 12 kts | 290° |
| 2026-04-24 20:33 | 49.01788 | 2.52134 | 354 ft | 14 kts | 353° |
| 2026-04-24 20:34 | 49.01891 | 2.52121 | 354 ft | 16 kts | 355° |
| 2026-04-24 20:34 | 49.01980 | 2.52111 | 354 ft | 8 kts | 356° |
| 2026-04-24 20:34 | 49.02002 | 2.52109 | 354 ft | 0 kts | 356° |
| 2026-04-24 20:35 | 49.02008 | 2.52109 | 353 ft | 2 kts | 356° |
| 2026-04-24 20:35 | 49.02052 | 2.52104 | 353 ft | 9 kts | 356° |
| 2026-04-24 20:35 | 49.02107 | 2.52149 | 354 ft | 11 kts | 78° |
| 2026-04-24 20:36 | 49.02111 | 2.52207 | 353 ft | 8 kts | 84° |
| 2026-04-24 20:36 | 49.02136 | 2.52672 | 356 ft | 80 kts | 85° |
| 2026-04-24 20:36 | 49.02199 | 2.53834 | 354 ft | 137 kts | 85° |
| 2026-04-24 20:36 | 49.02302 | 2.55434 | 652 ft | 158 kts | 83° |
| 2026-04-24 20:37 | 49.02386 | 2.57135 | 1277 ft | 163 kts | 84° |
| 2026-04-24 20:37 | 49.02465 | 2.58869 | 1985 ft | 164 kts | 85° |
| 2026-04-24 20:37 | 49.02556 | 2.60637 | 2475 ft | 176 kts | 85° |
| 2026-04-24 20:37 | 49.02661 | 2.62608 | 2735 ft | 198 kts | 86° |
| 2026-04-24 20:38 | 49.02781 | 2.64875 | 3057 ft | 224 kts | 86° |
| 2026-04-24 20:38 | 49.02912 | 2.67366 | 3518 ft | 246 kts | 86° |
| 2026-04-24 20:38 | 49.03049 | 2.69979 | 4260 ft | 255 kts | 86° |
| 2026-04-24 20:38 | 49.03193 | 2.72715 | 5050 ft | 263 kts | 86° |
| 2026-04-24 20:39 | 49.03335 | 2.75523 | 5863 ft | 268 kts | 85° |
| 2026-04-24 20:39 | 49.03475 | 2.78376 | 6713 ft | 272 kts | 85° |
| 2026-04-24 20:39 | 49.03616 | 2.81271 | 7488 ft | 276 kts | 85° |
| 2026-04-24 20:39 | 49.03755 | 2.84214 | 8282 ft | 280 kts | 85° |
| 2026-04-24 20:40 | 49.03896 | 2.87197 | 9058 ft | 285 kts | 85° |
| 2026-04-24 20:40 | 49.04038 | 2.90229 | 9840 ft | 289 kts | 85° |
| 2026-04-24 20:40 | 49.04185 | 2.93313 | 10492 ft | 297 kts | 84° |
| 2026-04-24 20:40 | 49.04382 | 2.96561 | 10689 ft | 320 kts | 83° |
| 2026-04-24 20:41 | 49.04639 | 3.00057 | 10846 ft | 343 kts | 82° |
| 2026-04-24 20:41 | 49.04931 | 3.03761 | 11092 ft | 360 kts | 82° |
| 2026-04-24 20:41 | 49.05234 | 3.07584 | 11661 ft | 365 kts | 82° |
| 2026-04-24 20:41 | 49.05530 | 3.11442 | 12316 ft | 369 kts | 83° |
| 2026-04-24 20:42 | 49.05822 | 3.15353 | 12976 ft | 372 kts | 83° |
| 2026-04-24 20:42 | 49.06106 | 3.19284 | 13616 ft | 375 kts | 83° |
| 2026-04-24 20:42 | 49.06388 | 3.23269 | 14229 ft | 379 kts | 83° |
| 2026-04-24 20:42 | 49.06668 | 3.27276 | 14789 ft | 382 kts | 83° |
| 2026-04-24 20:43 | 49.06953 | 3.31318 | 15353 ft | 385 kts | 83° |
| 2026-04-24 20:43 | 49.07241 | 3.35386 | 15930 ft | 387 kts | 83° |
| 2026-04-24 20:43 | 49.07529 | 3.39487 | 16478 ft | 391 kts | 83° |
| 2026-04-24 20:43 | 49.07814 | 3.43571 | 17068 ft | 393 kts | 83° |
| 2026-04-24 20:44 | 49.08107 | 3.47791 | 17664 ft | 397 kts | 84° |
| 2026-04-24 20:44 | 49.08398 | 3.51993 | 18251 ft | 400 kts | 84° |
| 2026-04-24 20:44 | 49.08690 | 3.56230 | 18813 ft | 403 kts | 84° |
| 2026-04-24 20:44 | 49.08982 | 3.60495 | 19326 ft | 406 kts | 84° |
| 2026-04-24 20:45 | 49.09273 | 3.64807 | 19848 ft | 409 kts | 85° |
| 2026-04-24 20:45 | 49.09559 | 3.69083 | 20352 ft | 412 kts | 85° |
| 2026-04-24 20:45 | 49.09853 | 3.73452 | 20837 ft | 416 kts | 85° |
| 2026-04-24 20:45 | 49.10148 | 3.77854 | 21307 ft | 418 kts | 85° |
| 2026-04-24 20:46 | 49.10442 | 3.82280 | 21757 ft | 421 kts | 85° |
| 2026-04-24 20:46 | 49.10737 | 3.86743 | 22194 ft | 423 kts | 85° |
| 2026-04-24 20:46 | 49.11035 | 3.91226 | 22622 ft | 426 kts | 85° |
| 2026-04-24 20:46 | 49.11331 | 3.95728 | 23038 ft | 428 kts | 85° |
| 2026-04-24 20:47 | 49.11627 | 4.00270 | 23443 ft | 431 kts | 85° |
| 2026-04-24 20:47 | 49.11919 | 4.04833 | 23824 ft | 433 kts | 86° |
| 2026-04-24 20:47 | 49.12208 | 4.09423 | 24153 ft | 435 kts | 86° |
| 2026-04-24 20:47 | 49.12501 | 4.14035 | 24482 ft | 437 kts | 86° |
| 2026-04-24 20:48 | 49.12915 | 4.18647 | 24801 ft | 441 kts | 76° |
| 2026-04-24 20:48 | 49.14199 | 4.22894 | 25117 ft | 446 kts | 55° |
| 2026-04-24 20:48 | 49.16391 | 4.26270 | 25414 ft | 451 kts | 39° |
| 2026-04-24 20:48 | 49.18827 | 4.29309 | 25727 ft | 452 kts | 43° |
| 2026-04-24 20:49 | 49.21057 | 4.32707 | 26050 ft | 454 kts | 47° |
| 2026-04-24 20:49 | 49.23263 | 4.36185 | 26356 ft | 456 kts | 46° |
| 2026-04-24 20:49 | 49.25468 | 4.39696 | 26636 ft | 459 kts | 47° |
| 2026-04-24 20:49 | 49.27677 | 4.43241 | 26947 ft | 461 kts | 47° |
| 2026-04-24 20:50 | 49.29891 | 4.46805 | 27310 ft | 462 kts | 47° |
| 2026-04-24 20:50 | 49.32105 | 4.50370 | 27707 ft | 462 kts | 47° |
| 2026-04-24 20:50 | 49.34318 | 4.53936 | 28144 ft | 461 kts | 47° |
| 2026-04-24 20:50 | 49.36526 | 4.57495 | 28614 ft | 460 kts | 47° |
| 2026-04-24 20:51 | 49.38698 | 4.60998 | 29074 ft | 459 kts | 47° |
| 2026-04-24 20:51 | 49.40894 | 4.64544 | 29539 ft | 458 kts | 47° |
| 2026-04-24 20:51 | 49.43083 | 4.68083 | 30008 ft | 457 kts | 47° |
| 2026-04-24 20:51 | 49.45282 | 4.71638 | 30164 ft | 460 kts | 46° |
| 2026-04-24 20:52 | 49.49743 | 4.78873 | 30179 ft | 470 kts | 46° |
| 2026-04-24 20:52 | 49.54244 | 4.86192 | 30191 ft | 472 kts | 46° |
| 2026-04-24 20:53 | 49.56506 | 4.89874 | 30416 ft | 473 kts | 46° |
| 2026-04-24 20:53 | 49.58760 | 4.93554 | 30735 ft | 472 kts | 47° |
| 2026-04-24 20:53 | 49.61021 | 4.97255 | 31006 ft | 474 kts | 47° |
| 2026-04-24 20:53 | 49.63281 | 5.00966 | 31160 ft | 476 kts | 47° |
| 2026-04-24 20:54 | 49.67817 | 5.08433 | 31193 ft | 478 kts | 46° |
| 2026-04-24 20:54 | 49.72369 | 5.15916 | 31198 ft | 478 kts | 46° |
| 2026-04-24 20:55 | 49.76918 | 5.23421 | 31201 ft | 478 kts | 46° |
| 2026-04-24 20:55 | 49.81462 | 5.30943 | 31201 ft | 478 kts | 46° |
| 2026-04-24 20:56 | 49.86001 | 5.38474 | 31210 ft | 479 kts | 46° |
| 2026-04-24 20:56 | 49.90548 | 5.46057 | 31206 ft | 481 kts | 46° |
| 2026-04-24 20:57 | 49.95108 | 5.53685 | 31041 ft | 483 kts | 46° |
| 2026-04-24 20:57 | 49.97395 | 5.57518 | 30794 ft | 483 kts | 46° |
| 2026-04-24 20:57 | 49.99680 | 5.61347 | 30552 ft | 484 kts | 46° |
| 2026-04-24 20:58 | 50.01964 | 5.65191 | 30314 ft | 484 kts | 46° |
| 2026-04-24 20:58 | 50.04249 | 5.69040 | 30031 ft | 485 kts | 46° |
| 2026-04-24 20:58 | 50.06540 | 5.72904 | 29760 ft | 486 kts | 46° |
| 2026-04-24 20:58 | 50.08838 | 5.76775 | 29489 ft | 488 kts | 46° |
| 2026-04-24 20:59 | 50.11140 | 5.80664 | 29214 ft | 489 kts | 46° |
| 2026-04-24 20:59 | 50.13434 | 5.84584 | 28938 ft | 490 kts | 46° |
| 2026-04-24 20:59 | 50.15716 | 5.88520 | 28359 ft | 488 kts | 46° |
| 2026-04-24 20:59 | 50.17999 | 5.92479 | 27256 ft | 491 kts | 47° |
| 2026-04-24 21:00 | 50.20286 | 5.96453 | 26621 ft | 494 kts | 47° |
| 2026-04-24 21:00 | 50.22591 | 6.00458 | 25998 ft | 496 kts | 47° |
| 2026-04-24 21:00 | 50.24900 | 6.04475 | 25386 ft | 497 kts | 47° |
| 2026-04-24 21:00 | 50.27205 | 6.08488 | 24791 ft | 495 kts | 46° |
| 2026-04-24 21:01 | 50.29583 | 6.12368 | 24208 ft | 491 kts | 40° |
| 2026-04-24 21:01 | 50.32255 | 6.15628 | 23608 ft | 485 kts | 31° |
| 2026-04-24 21:01 | 50.35067 | 6.18504 | 22929 ft | 480 kts | 31° |
| 2026-04-24 21:01 | 50.37845 | 6.21348 | 22251 ft | 474 kts | 31° |
| 2026-04-24 21:02 | 50.40580 | 6.24158 | 21633 ft | 468 kts | 31° |
| 2026-04-24 21:02 | 50.43250 | 6.26909 | 20994 ft | 462 kts | 31° |
| 2026-04-24 21:02 | 50.45905 | 6.29677 | 20372 ft | 457 kts | 34° |
| 2026-04-24 21:02 | 50.48278 | 6.32955 | 19765 ft | 453 kts | 45° |
| 2026-04-24 21:03 | 50.50192 | 6.36870 | 19171 ft | 451 kts | 57° |
| 2026-04-24 21:03 | 50.51600 | 6.41237 | 18593 ft | 447 kts | 66° |
| 2026-04-24 21:03 | 50.52553 | 6.45849 | 17944 ft | 442 kts | 74° |
| 2026-04-24 21:03 | 50.53383 | 6.50485 | 17276 ft | 437 kts | 73° |
| 2026-04-24 21:04 | 50.54250 | 6.55033 | 16642 ft | 431 kts | 72° |
| 2026-04-24 21:04 | 50.55137 | 6.59511 | 16022 ft | 426 kts | 71° |
| 2026-04-24 21:04 | 50.56025 | 6.63931 | 15404 ft | 422 kts | 71° |
| 2026-04-24 21:04 | 50.56904 | 6.68316 | 14795 ft | 418 kts | 71° |
| 2026-04-24 21:05 | 50.57768 | 6.72665 | 14201 ft | 415 kts | 71° |
| 2026-04-24 21:05 | 50.58617 | 6.76981 | 13565 ft | 411 kts | 72° |
| 2026-04-24 21:05 | 50.59449 | 6.81253 | 12986 ft | 405 kts | 72° |
| 2026-04-24 21:05 | 50.60258 | 6.85451 | 12473 ft | 397 kts | 72° |
| 2026-04-24 21:06 | 50.61032 | 6.89484 | 11965 ft | 379 kts | 72° |
| 2026-04-24 21:06 | 50.61770 | 6.93333 | 11472 ft | 357 kts | 72° |
| 2026-04-24 21:06 | 50.62279 | 6.97048 | 10983 ft | 340 kts | 82° |
| 2026-04-24 21:06 | 50.62527 | 7.00664 | 10549 ft | 325 kts | 83° |
| 2026-04-24 21:07 | 50.62740 | 7.04129 | 10126 ft | 311 kts | 84° |
| 2026-04-24 21:07 | 50.62736 | 7.07478 | 9654 ft | 300 kts | 92° |
| 2026-04-24 21:07 | 50.62582 | 7.10700 | 9210 ft | 290 kts | 93° |
| 2026-04-24 21:07 | 50.62414 | 7.13815 | 8789 ft | 280 kts | 93° |
| 2026-04-24 21:08 | 50.62243 | 7.16825 | 8388 ft | 272 kts | 93° |
| 2026-04-24 21:08 | 50.62172 | 7.19747 | 7989 ft | 262 kts | 85° |
| 2026-04-24 21:08 | 50.62285 | 7.22573 | 7592 ft | 255 kts | 84° |
| 2026-04-24 21:08 | 50.62416 | 7.25326 | 7201 ft | 249 kts | 83° |
| 2026-04-24 21:09 | 50.62542 | 7.28018 | 6819 ft | 243 kts | 83° |
| 2026-04-24 21:09 | 50.62767 | 7.30604 | 6424 ft | 235 kts | 75° |
| 2026-04-24 21:09 | 50.63134 | 7.33073 | 6034 ft | 228 kts | 74° |
| 2026-04-24 21:09 | 50.63642 | 7.35381 | 5655 ft | 220 kts | 59° |
| 2026-04-24 21:10 | 50.64441 | 7.37409 | 5293 ft | 216 kts | 54° |
| 2026-04-24 21:10 | 50.65271 | 7.39350 | 4919 ft | 211 kts | 53° |
| 2026-04-24 21:10 | 50.66199 | 7.41086 | 4511 ft | 204 kts | 30° |
| 2026-04-24 21:10 | 50.67515 | 7.41634 | 4104 ft | 197 kts | 352° |
| 2026-04-24 21:11 | 50.68723 | 7.40753 | 3734 ft | 192 kts | 319° |
| 2026-04-24 21:11 | 50.69701 | 7.39343 | 3338 ft | 190 kts | 318° |
| 2026-04-24 21:11 | 50.70669 | 7.37952 | 3034 ft | 183 kts | 319° |
| 2026-04-24 21:11 | 50.71549 | 7.36687 | 3000 ft | 169 kts | 319° |
| 2026-04-24 21:12 | 50.72392 | 7.35478 | 3014 ft | 170 kts | 319° |
| 2026-04-24 21:12 | 50.72988 | 7.34623 | 3005 ft | 172 kts | 319° |
| 2026-04-24 21:12 | 50.74174 | 7.32921 | 3003 ft | 172 kts | 319° |
| 2026-04-24 21:12 | 50.75047 | 7.31666 | 2999 ft | 173 kts | 319° |
| 2026-04-24 21:13 | 50.75936 | 7.30389 | 2859 ft | 172 kts | 319° |
| 2026-04-24 21:13 | 50.76815 | 7.29125 | 2660 ft | 169 kts | 319° |
| 2026-04-24 21:13 | 50.77666 | 7.27898 | 2439 ft | 160 kts | 319° |
| 2026-04-24 21:13 | 50.78453 | 7.26765 | 2255 ft | 145 kts | 319° |
| 2026-04-24 21:14 | 50.79190 | 7.25704 | 2055 ft | 140 kts | 320° |
| 2026-04-24 21:14 | 50.79907 | 7.24672 | 1865 ft | 139 kts | 320° |
| 2026-04-24 21:14 | 50.80621 | 7.23643 | 1677 ft | 139 kts | 319° |
| 2026-04-24 21:14 | 50.81328 | 7.22600 | 1463 ft | 139 kts | 318° |
| 2026-04-24 21:15 | 50.81799 | 7.21906 | 1304 ft | 140 kts | 318° |
| 2026-04-24 21:15 | 50.82527 | 7.20883 | 1108 ft | 141 kts | 320° |
| 2026-04-24 21:15 | 50.83257 | 7.19832 | 938 ft | 142 kts | 317° |
| 2026-04-24 21:15 | 50.83987 | 7.18776 | 755 ft | 143 kts | 318° |
| 2026-04-24 21:16 | 50.84727 | 7.17711 | 546 ft | 145 kts | 318° |
| 2026-04-24 21:16 | 50.85472 | 7.16636 | 373 ft | 144 kts | 318° |
| 2026-04-24 21:16 | 50.86170 | 7.15628 | 292 ft | 117 kts | 317° |
| 2026-04-24 21:16 | 50.86661 | 7.14920 | 272 ft | 79 kts | 318° |
| 2026-04-24 21:17 | 50.87008 | 7.14420 | 255 ft | 59 kts | 317° |
| 2026-04-24 21:17 | 50.87304 | 7.13989 | 242 ft | 58 kts | 317° |
| 2026-04-24 21:17 | 50.87592 | 7.13568 | 239 ft | 55 kts | 317° |
| 2026-04-24 21:17 | 50.87843 | 7.13203 | 239 ft | 44 kts | 317° |
| 2026-04-24 21:18 | 50.87999 | 7.12929 | 239 ft | 27 kts | 288° |
| 2026-04-24 21:18 | 50.87986 | 7.12693 | 235 ft | 18 kts | 261° |
| 2026-04-24 21:18 | 50.88027 | 7.12502 | 234 ft | 16 kts | 299° |
| 2026-04-24 21:18 | 50.88087 | 7.12348 | 233 ft | 12 kts | 304° |
| 2026-04-24 21:19 | 50.88142 | 7.12224 | 234 ft | 15 kts | 305° |
| 2026-04-24 21:19 | 50.88197 | 7.12103 | 232 ft | 13 kts | 307° |
| 2026-04-24 21:19 | 50.88247 | 7.11999 | 232 ft | 8 kts | 306° |
| 2026-04-24 21:19 | 50.88274 | 7.11956 | 232 ft | 4 kts | 347° |
| 2026-04-24 21:20 | 50.88344 | 7.12011 | 233 ft | 3 kts | 36° |
| 2026-04-24 21:20 | 50.88345 | 7.12011 | 233 ft | 0 kts | 36° |